Weather reports worldwide

Advertisment
Cabo Villano, Spain (8006): temperature & dewpoint: 07.12.2018 10:00:00 - 13.12.2018 10:00:00 (CET)Cabo Villano, Spain (8006): wind speed & gusts: 07.12.2018 10:00:00 - 13.12.2018 10:00:00 (CET)Cabo Villano, Spain (8006): wind direction: 07.12.2018 10:00:00 - 13.12.2018 10:00:00 (CET)Cabo Villano, Spain (8006): precipitation: 07.12.2018 10:00:00 - 13.12.2018 10:00:00 (CET)
Date & Time tt [°C] td [°C] ff [km/h] ff [kn] fx [km/h] fx [kn] dd rr [mm]
13.12.2018 10:00:00 10,6 6,7 30 16 41 22 WNW 3,0
13.12.2018 09:00:00 10,4 6,0 22 12 36 19 WNW 0,0
13.12.2018 08:00:00 9,2 4,4 28 15 62 34 WNW 0,0
13.12.2018 07:00:00 9,2 6,6 35 19 67 36 NW -
13.12.2018 06:00:00 10,1 6,3 35 19 58 31 NW 1,4
13.12.2018 05:00:00 9,9 7,0 30 16 51 28 WNW 0,1
13.12.2018 04:00:00 10,3 7,4 35 19 59 32 WSW 0,0
13.12.2018 03:00:00 10,4 7,5 41 22 79 43 WSW 3,8
13.12.2018 02:00:00 10,4 9,8 28 15 37 20 SSW 0,3
13.12.2018 01:00:00 10,2 9,6 28 15 68 37 W -
13.12.2018 00:00:00 13,7 13,1 45 24 88 47 SW 0,5
12.12.2018 23:00:00 13,1 12,5 63 34 93 50 S 2,6
12.12.2018 22:00:00 12,9 12,3 63 34 92 50 S 1,5
12.12.2018 21:00:00 12,3 11,4 67 36 92 50 S 3,3
12.12.2018 20:00:00 12,4 11,1 57 31 81 44 S 1,5
12.12.2018 19:00:00 12,2 9,9 55 30 75 41 S -
12.12.2018 18:00:00 11,4 9,8 44 24 68 37 S 2,3
12.12.2018 17:00:00 12,6 9,8 46 25 69 37 SSW 0,0
12.12.2018 16:00:00 12,6 9,8 41 22 61 33 S 0,0
12.12.2018 15:00:00 12,1 9,1 35 19 51 28 S 0,0
12.12.2018 14:00:00 - - - - - - - -
12.12.2018 13:00:00 - - - - - - - -
12.12.2018 12:00:00 10,0 6,7 22 12 32 17 S 0,0
12.12.2018 11:00:00 9,5 6,1 19 10 24 13 S 0,0
12.12.2018 10:00:00 8,8 5,0 16 8 27 15 S 0,0
12.12.2018 09:00:00 9,2 5,2 16 8 23 12 SSE 0,0
12.12.2018 08:00:00 7,8 4,9 16 8 19 10 SE 0,0
12.12.2018 07:00:00 8,0 4,8 12 6 13 7 SE -
12.12.2018 06:00:00 8,0 4,9 9 5 14 8 SE 0,0
12.12.2018 05:00:00 7,5 4,3 13 7 15 8 SE 0,0
12.12.2018 04:00:00 7,5 4,5 11 6 14 8 SE 0,0
12.12.2018 03:00:00 8,1 4,7 6 4 10 5 SE 0,0
12.12.2018 02:00:00 8,1 4,7 6 3 9 5 ESE 0,0
12.12.2018 01:00:00 8,1 4,9 5 3 11 6 SE -
12.12.2018 00:00:00 9,9 5,1 0 0 9 5 ESE 0,0
11.12.2018 23:00:00 10,2 5,4 3 2 11 6 NE 0,0
11.12.2018 22:00:00 10,1 5,7 8 5 21 11 N 0,0
11.12.2018 21:00:00 10,6 5,8 16 9 23 13 NNW 0,0
11.12.2018 20:00:00 11,2 8,1 19 10 26 14 NNW 0,0
11.12.2018 19:00:00 11,8 10,4 12 6 24 13 N -
11.12.2018 18:00:00 11,1 10,2 17 9 39 21 NNW 2,5
11.12.2018 17:00:00 11,8 10,9 14 7 36 19 NW 1,2
11.12.2018 16:00:00 13,5 12,2 20 11 27 14 SSW 0,0
11.12.2018 15:00:00 14,3 12,7 19 11 31 17 SW 0,0
11.12.2018 14:00:00 13,8 12,4 29 16 41 22 SW 0,0
11.12.2018 13:00:00 14,1 12,0 26 14 33 18 SSW -
11.12.2018 12:00:00 14,0 11,7 19 11 36 19 S 0,0
11.12.2018 11:00:00 14,5 12,0 26 14 41 22 SSW 0,0
11.12.2018 10:00:00 13,5 10,1 35 19 44 24 SSW 0,0
11.12.2018 09:00:00 13,3 6,2 35 19 46 25 SSW 0,0
11.12.2018 08:00:00 13,0 2,6 21 11 61 33 S 0,0
11.12.2018 07:00:00 13,4 1,4 16 9 28 15 S -
11.12.2018 06:00:00 13,0 0,4 17 9 26 14 S 0,0
11.12.2018 05:00:00 13,3 0,0 15 8 19 10 S 0,0
11.12.2018 04:00:00 13,2 -0,1 16 8 21 11 S 0,0
11.12.2018 03:00:00 15,0 0,1 16 8 23 12 S 0,0
11.12.2018 02:00:00 14,6 0,8 19 10 23 12 SSE 0,0
11.12.2018 01:00:00 13,2 1,6 13 7 18 10 SSE -
11.12.2018 00:00:00 13,1 1,5 11 6 13 7 SE 0,0
10.12.2018 23:00:00 14,2 0,8 7 4 14 8 SSE 0,0
10.12.2018 22:00:00 14,4 1,7 8 4 14 7 SSE 0,0
10.12.2018 21:00:00 13,7 3,2 9 5 11 6 SSE 0,0
10.12.2018 20:00:00 14,7 3,5 8 4 14 8 S 0,0
10.12.2018 19:00:00 13,9 5,3 13 7 19 10 SE -
10.12.2018 18:00:00 14,9 6,0 13 7 18 10 SE 0,0
10.12.2018 17:00:00 13,6 9,3 9 5 19 10 NE 0,0
10.12.2018 16:00:00 14,1 8,9 11 6 21 11 NNE 0,0
10.12.2018 15:00:00 13,8 8,0 18 10 22 12 NE 0,0
10.12.2018 14:00:00 13,9 6,0 10 5 19 10 NE 0,0
10.12.2018 13:00:00 13,6 6,0 9 5 18 10 NE -
10.12.2018 12:00:00 12,8 5,7 10 5 14 8 NE 0,0
10.12.2018 11:00:00 11,4 2,7 9 5 17 9 NE 0,0
10.12.2018 10:00:00 10,3 3,1 11 6 18 10 NE 0,0
10.12.2018 09:00:00 9,5 5,5 11 6 16 9 NE 0,0
10.12.2018 08:00:00 9,7 6,4 13 7 22 12 NE 0,0
10.12.2018 07:00:00 10,1 7,4 16 9 20 11 NNE -
10.12.2018 06:00:00 10,5 7,6 13 7 31 17 NNE 0,0
10.12.2018 05:00:00 10,3 8,6 18 10 27 14 NE 0,0
10.12.2018 04:00:00 10,4 8,5 22 12 26 14 NE 0,0
10.12.2018 03:00:00 10,4 8,7 14 7 21 11 NE 0,0
10.12.2018 02:00:00 9,6 7,4 10 6 21 12 NE 0,0
10.12.2018 01:00:00 10,3 7,7 20 11 33 18 ENE -
10.12.2018 00:00:00 10,4 8,0 24 13 33 18 ENE 0,0
09.12.2018 23:00:00 10,7 8,3 18 10 29 16 ENE 0,0
09.12.2018 22:00:00 10,8 8,0 21 11 30 16 ENE 0,0
09.12.2018 21:00:00 11,3 8,2 18 10 33 18 NE 0,0
09.12.2018 20:00:00 11,4 8,1 17 9 33 18 NE 0,0
09.12.2018 19:00:00 11,9 8,6 25 13 35 19 NE -
09.12.2018 18:00:00 11,9 8,2 29 15 35 19 NNE 0,0
09.12.2018 17:00:00 12,3 8,4 23 13 27 15 NE 0,0
09.12.2018 16:00:00 12,7 8,6 19 10 24 13 NE 0,0
09.12.2018 15:00:00 13,0 8,7 15 8 19 10 NNE 0,0
09.12.2018 14:00:00 13,1 8,6 11 6 16 9 NE 0,0
09.12.2018 13:00:00 13,4 8,9 9 5 15 8 NNE -
09.12.2018 12:00:00 13,2 9,3 12 6 21 11 NE 0,0
09.12.2018 11:00:00 11,9 9,3 9 5 18 10 NNE 0,0
09.12.2018 10:00:00 11,8 9,7 14 8 20 11 NNE 0,0
09.12.2018 09:00:00 11,5 10,1 10 6 19 10 N 0,0
09.12.2018 08:00:00 11,6 11,0 13 7 19 10 NNW 0,0
09.12.2018 07:00:00 11,7 11,1 8 5 14 7 WNW -
09.12.2018 06:00:00 12,1 11,5 9 5 16 9 WNW 0,0
09.12.2018 05:00:00 12,3 11,7 13 7 19 10 W 0,0
09.12.2018 04:00:00 12,7 12,1 13 7 32 18 SW 0,4
09.12.2018 03:00:00 12,7 12,1 13 7 22 12 SSW 0,7
09.12.2018 02:00:00 12,8 12,2 17 9 27 15 S 0,1
09.12.2018 01:00:00 12,8 12,2 19 10 28 15 S -
09.12.2018 00:00:00 13,0 12,4 20 11 28 15 S 0,0
08.12.2018 23:00:00 13,0 12,4 23 12 28 15 S 0,2
08.12.2018 22:00:00 12,9 12,3 21 11 29 16 S 0,2
08.12.2018 21:00:00 12,8 11,9 24 13 32 17 SSW 0,1
08.12.2018 20:00:00 12,5 11,6 26 14 35 19 S 0,1
08.12.2018 19:00:00 12,1 11,2 22 12 38 20 S -
08.12.2018 18:00:00 12,2 10,8 29 16 43 23 SSW 0,0
08.12.2018 17:00:00 12,7 9,5 30 16 47 25 SSW 0,0
08.12.2018 16:00:00 13,0 9,1 27 15 40 22 SSW 0,0
08.12.2018 15:00:00 14,0 9,4 32 17 41 22 SSW 0,0
08.12.2018 14:00:00 14,0 9,0 35 19 43 23 SW 0,0
08.12.2018 13:00:00 13,7 8,8 32 17 41 22 SSW -
08.12.2018 12:00:00 13,0 9,5 31 17 39 21 SW 0,0
08.12.2018 11:00:00 12,4 10,3 27 14 35 19 SW 0,0
08.12.2018 10:00:00 11,7 10,0 22 12 31 17 SSW 0,0
08.12.2018 09:00:00 10,8 9,1 19 11 24 13 S 0,0
08.12.2018 08:00:00 9,8 8,1 16 9 20 11 S 0,0
08.12.2018 07:00:00 10,1 8,0 15 8 22 12 S -
08.12.2018 06:00:00 10,1 7,9 14 8 22 12 S 0,0
08.12.2018 05:00:00 10,2 7,6 15 8 20 11 S 0,0
08.12.2018 04:00:00 10,3 7,0 13 7 16 8 S 0,0
08.12.2018 03:00:00 10,6 7,3 7 4 14 8 SSW 0,0
08.12.2018 02:00:00 10,8 7,3 8 5 13 7 SSW 0,0
08.12.2018 01:00:00 11,0 7,5 6 3 8 5 SSW -
08.12.2018 00:00:00 10,8 7,3 5 3 13 7 SW 0,0
07.12.2018 23:00:00 11,1 7,6 5 3 11 6 WSW 0,0
07.12.2018 22:00:00 11,3 7,8 8 5 16 8 WNW 0,0
07.12.2018 21:00:00 10,8 7,1 9 5 15 8 WNW 0,0
07.12.2018 20:00:00 11,4 7,3 11 6 18 10 WNW 0,0
07.12.2018 19:00:00 11,0 6,6 11 6 19 10 WNW -
07.12.2018 18:00:00 11,2 6,2 16 8 24 13 WNW 0,0
07.12.2018 17:00:00 12,5 8,6 19 10 30 16 WNW 0,0
07.12.2018 16:00:00 13,2 11,1 18 10 28 15 W 0,0
07.12.2018 15:00:00 13,7 12,8 21 11 31 17 WSW 0,0
07.12.2018 14:00:00 13,0 12,5 28 15 36 19 W 0,0
07.12.2018 13:00:00 13,2 12,7 27 15 41 22 WSW -
07.12.2018 12:00:00 13,8 13,3 31 17 49 27 SW 0,4
07.12.2018 11:00:00 13,5 13,0 39 21 54 29 SW 0,7
07.12.2018 10:00:00 13,3 12,7 38 20 56 30 SW 0,6

tt = temperature
td = dewpoint
ff = wind speed
fx = gusts
dd = wind direction
rr = precipitation

Next stations